createdAt,value
2019-05-14T00:00:48.971Z,103866.39
2019-05-14T00:05:51.685Z,103876.57
2019-05-14T00:10:53.471Z,103871.91
2019-05-14T00:15:55.016Z,103870.00
2019-05-14T00:20:56.393Z,103862.56
2019-05-14T00:25:57.905Z,103866.44
2019-05-14T00:30:59.425Z,103857.84
2019-05-14T00:36:02.074Z,103846.64
2019-05-14T00:41:03.754Z,103840.94
2019-05-14T00:46:05.220Z,103836.72
2019-05-14T00:51:06.760Z,103838.81
2019-05-14T00:56:08.247Z,103835.90
2019-05-14T01:01:11.800Z,103829.05
2019-05-14T01:06:13.470Z,103829.81
2019-05-14T01:11:15.051Z,103821.15
2019-05-14T01:16:16.441Z,103827.63
2019-05-14T01:21:17.877Z,103827.02
2019-05-14T01:26:21.582Z,103827.95
2019-05-14T01:31:22.717Z,103838.42
2019-05-14T01:36:24.144Z,103839.19
2019-05-14T01:41:25.688Z,103837.05
2019-05-14T01:46:27.253Z,103846.88
2019-05-14T01:51:28.756Z,103835.95
2019-05-14T01:56:31.910Z,103826.83
2019-05-14T02:01:33.609Z,103837.47
2019-05-14T02:06:35.105Z,103831.72
2019-05-14T02:11:36.666Z,103835.70
2019-05-14T02:16:38.168Z,103845.13
2019-05-14T02:21:42.300Z,103834.05
2019-05-14T02:26:43.156Z,103837.89
2019-05-14T02:31:44.642Z,103834.50
2019-05-14T02:36:49.411Z,103847.81
2019-05-14T02:41:50.030Z,103844.01
2019-05-14T02:46:51.783Z,103838.18
2019-05-14T02:51:53.249Z,103843.45
2019-05-14T02:56:54.791Z,103833.06
2019-05-14T03:01:58.866Z,103815.78
2019-05-14T03:06:59.521Z,103808.94
2019-05-14T03:12:00.968Z,103802.09
2019-05-14T03:17:02.461Z,103804.84
2019-05-14T03:22:03.986Z,103801.36
2019-05-14T03:27:05.408Z,103800.28
2019-05-14T03:32:11.974Z,103802.34
2019-05-14T03:37:12.741Z,103793.44
2019-05-14T03:42:13.676Z,103796.83
2019-05-14T03:47:15.250Z,103798.89
2019-05-14T03:52:19.642Z,103796.19
2019-05-14T03:57:20.411Z,103791.58
2019-05-14T04:02:24.854Z,103795.08
2019-05-14T04:07:26.360Z,103790.73
2019-05-14T04:12:29.430Z,103789.62
2019-05-14T04:17:36.899Z,103781.84
2019-05-14T04:22:34.616Z,103781.84
2019-05-14T04:27:40.038Z,103778.25
2019-05-14T04:32:42.177Z,103776.48
2019-05-14T04:37:43.823Z,103767.12
2019-05-14T04:42:45.384Z,103763.02
2019-05-14T04:47:49.803Z,103773.16
2019-05-14T04:52:50.475Z,103781.22
2019-05-14T04:57:52.088Z,103770.98
2019-05-14T05:02:53.721Z,103763.34
2019-05-14T05:07:55.375Z,103769.33
2019-05-14T05:12:58.604Z,103759.41
2019-05-14T05:18:00.209Z,103762.71
2019-05-14T05:23:01.702Z,103756.48
2019-05-14T05:28:03.281Z,103754.66
2019-05-14T05:33:04.828Z,103752.56
2019-05-14T05:38:08.665Z,103759.62
2019-05-14T05:43:13.076Z,103756.72
2019-05-14T05:48:14.652Z,103746.28
2019-05-14T05:53:16.191Z,103750.36
2019-05-14T05:58:19.674Z,103749.52
2019-05-14T06:03:21.380Z,103738.99
2019-05-14T06:08:22.943Z,103747.08
2019-05-14T06:13:24.452Z,103745.45
2019-05-14T06:18:28.379Z,103729.67
2019-05-14T06:23:29.469Z,103731.59
2019-05-14T06:28:33.511Z,103743.50
2019-05-14T06:33:34.462Z,103744.75
2019-05-14T06:38:39.727Z,103738.91
2019-05-14T06:43:41.326Z,103739.89
2019-05-14T06:48:42.831Z,103736.71
2019-05-14T06:53:44.382Z,103739.05
2019-05-14T06:58:45.775Z,103741.41
2019-05-14T07:03:49.048Z,103740.11
2019-05-14T07:08:52.817Z,103738.05
2019-05-14T07:13:54.243Z,103746.09
2019-05-14T07:18:58.879Z,103747.45
2019-05-14T07:24:00.006Z,103731.20
2019-05-14T07:29:01.600Z,103737.36
2019-05-14T07:34:03.144Z,103724.77
2019-05-14T07:39:09.069Z,103719.82
2019-05-14T07:44:09.356Z,103723.90
2019-05-14T07:49:11.965Z,103711.91
2019-05-14T07:54:13.693Z,103709.03
2019-05-14T07:59:15.259Z,103699.64
2019-05-14T08:04:19.751Z,103707.81
2019-05-14T08:09:21.285Z,103710.41
2019-05-14T08:14:22.813Z,103712.24
2019-05-14T08:19:27.240Z,103704.61
2019-05-14T08:24:30.135Z,103706.72
2019-05-14T08:29:31.223Z,103697.24
2019-05-14T08:34:32.753Z,103697.67
2019-05-14T08:39:34.316Z,103684.63
2019-05-14T08:44:35.838Z,103686.43
2019-05-14T08:49:45.417Z,103669.38
2019-05-14T08:54:40.826Z,103662.25
2019-05-14T08:59:42.308Z,103648.14
2019-05-14T09:04:44.142Z,103636.45
2019-05-14T09:09:45.776Z,103629.94
2019-05-14T09:14:48.303Z,103639.12
2019-05-14T09:20:01.340Z,103633.45
2019-05-14T09:24:53.484Z,103620.91
2019-05-14T09:29:55.004Z,103620.84
2019-05-14T09:34:58.794Z,103618.56
2019-05-14T09:39:59.929Z,103625.94
2019-05-14T09:45:01.420Z,103612.31
2019-05-14T09:50:16.358Z,103608.71
2019-05-14T09:55:09.156Z,103613.34
2019-05-14T10:00:14.316Z,103602.34
2019-05-14T10:05:14.573Z,103606.13
2019-05-14T10:10:19.386Z,103593.50
2019-05-14T10:15:19.735Z,103587.31
2019-05-14T10:20:36.736Z,103579.01
2019-05-14T10:25:24.894Z,103561.74
2019-05-14T10:30:28.549Z,103560.63
2019-05-14T10:35:29.970Z,103557.16
2019-05-14T10:40:31.665Z,103539.62
2019-05-14T10:45:33.341Z,103544.90
2019-05-14T10:50:44.897Z,103524.91
2019-05-14T10:55:38.810Z,103534.61
2019-05-14T11:00:41.877Z,103519.20
2019-05-14T11:05:43.809Z,103512.54
2019-05-14T11:10:45.348Z,103518.44
2019-05-14T11:15:48.685Z,103510.39
2019-05-14T11:20:51.565Z,103496.16
2019-05-14T11:25:53.405Z,103494.63
2019-05-14T11:30:54.695Z,103482.88
2019-05-14T11:35:58.509Z,103481.86
2019-05-14T11:40:59.584Z,103473.62
2019-05-14T11:46:01.059Z,103459.36
2019-05-14T11:51:02.620Z,103449.80
2019-05-14T11:56:04.155Z,103462.50
2019-05-14T12:01:05.701Z,103447.44
2019-05-14T12:06:09.888Z,103431.14
2019-05-14T12:11:10.614Z,103451.13
2019-05-14T12:16:12.138Z,103432.40
2019-05-14T12:21:13.589Z,103436.42
2019-05-14T12:26:15.105Z,103410.48
2019-05-14T12:31:16.756Z,103408.44
2019-05-14T12:36:19.393Z,103401.28
2019-05-14T12:41:21.177Z,103381.69
2019-05-14T12:46:22.830Z,103387.66
2019-05-14T12:51:24.305Z,103389.27
2019-05-14T12:56:25.899Z,103378.32
2019-05-14T13:01:27.375Z,103371.72
2019-05-14T13:06:29.490Z,103377.42
2019-05-14T13:11:31.136Z,103365.72
2019-05-14T13:16:32.719Z,103342.64
2019-05-14T13:21:34.140Z,103333.70
2019-05-14T13:26:35.666Z,103339.45
2019-05-14T13:31:37.219Z,103323.92
2019-05-14T13:36:40.114Z,103318.39
2019-05-14T13:41:42.191Z,103311.69
2019-05-14T13:46:43.796Z,103298.34
2019-05-14T13:51:45.346Z,103294.63
2019-05-14T13:56:48.388Z,103301.22
2019-05-14T14:01:54.810Z,103286.37
2019-05-14T14:06:55.938Z,103276.08
2019-05-14T14:11:58.793Z,103254.89
2019-05-14T14:17:00.395Z,103261.91
2019-05-14T14:22:01.951Z,103240.61
2019-05-14T14:27:03.502Z,103241.62
2019-05-14T14:32:05.086Z,103227.13
2019-05-14T14:37:08.906Z,103230.84
2019-05-14T14:42:10.238Z,103235.28
2019-05-14T14:47:12.829Z,103236.67
2019-05-14T14:52:14.325Z,103226.05
2019-05-14T14:57:19.546Z,103235.14
2019-05-14T15:02:19.877Z,103224.23
2019-05-14T15:07:22.656Z,103218.28
2019-05-14T15:12:24.280Z,103215.73
2019-05-14T15:17:25.874Z,103198.28
2019-05-14T15:22:31.201Z,103187.92
2019-05-14T15:27:33.008Z,103183.20
2019-05-14T15:32:34.501Z,103178.05
2019-05-14T15:37:36.067Z,103166.64
2019-05-14T15:42:39.504Z,103160.75
2019-05-14T15:47:41.207Z,103153.14
2019-05-14T15:52:42.840Z,103150.00
2019-05-14T15:57:44.450Z,103150.86
2019-05-14T16:02:45.967Z,103148.50
2019-05-14T16:07:49.433Z,103137.34
2019-05-14T16:12:50.953Z,103127.87
2019-05-14T16:18:06.118Z,103119.89
2019-05-14T16:22:55.801Z,103123.44
2019-05-14T16:27:59.302Z,103127.36
2019-05-14T16:33:01.781Z,103108.26
2019-05-14T16:38:03.298Z,103113.68
2019-05-14T16:43:04.919Z,103103.16
2019-05-14T16:48:10.539Z,103101.14
2019-05-14T16:53:11.576Z,103104.16
2019-05-14T16:58:13.373Z,103112.56
2019-05-14T17:03:14.910Z,103105.14
2019-05-14T17:08:19.006Z,103100.66
2019-05-14T17:13:19.855Z,103096.39
2019-05-14T17:18:21.426Z,103094.15
2019-05-14T17:23:23.046Z,103088.93
2019-05-14T17:28:24.847Z,103083.25
2019-05-14T17:33:26.321Z,103081.19
2019-05-14T17:38:29.242Z,103070.19
2019-05-14T17:43:30.918Z,103075.34
2019-05-14T17:48:32.483Z,103071.84
2019-05-14T17:53:33.968Z,103079.37
2019-05-14T17:58:35.567Z,103068.47
2019-05-14T18:03:39.678Z,103067.78
2019-05-14T18:08:40.654Z,103065.26
2019-05-14T18:13:42.205Z,103064.54
2019-05-14T18:18:43.785Z,103066.77
2019-05-14T18:23:45.274Z,103064.91
2019-05-14T18:28:46.839Z,103066.03
2019-05-14T18:33:49.183Z,103063.44
2019-05-14T18:38:51.130Z,103058.92
2019-05-14T18:43:52.651Z,103048.89
2019-05-14T18:48:54.236Z,103046.27
2019-05-14T18:53:55.826Z,103047.99
2019-05-14T18:58:57.410Z,103044.03
2019-05-14T19:03:59.119Z,103042.10
2019-05-14T19:09:00.648Z,103048.33
2019-05-14T19:14:02.079Z,103044.73
2019-05-14T19:19:03.726Z,103048.66
2019-05-14T19:24:05.441Z,103048.02
2019-05-14T19:29:08.726Z,103060.90
2019-05-14T19:34:10.369Z,103060.95
2019-05-14T19:39:11.889Z,103079.91
2019-05-14T19:44:13.428Z,103075.84
2019-05-14T19:49:15.173Z,103075.15
2019-05-14T19:54:19.480Z,103083.52
2019-05-14T19:59:20.131Z,103077.57
2019-05-14T20:04:21.641Z,103088.22
2019-05-14T20:09:23.219Z,103090.23
2019-05-14T20:14:24.821Z,103091.11
2019-05-14T20:19:28.561Z,103092.66
2019-05-14T20:24:29.702Z,103094.55
2019-05-14T20:29:31.346Z,103094.11
2019-05-14T20:34:32.762Z,103090.73
2019-05-14T20:39:34.399Z,103083.08
2019-05-14T20:44:38.448Z,103086.77
2019-05-14T20:49:39.326Z,103076.27
2019-05-14T20:54:40.742Z,103077.70
2019-05-14T20:59:42.110Z,103080.56
2019-05-14T21:04:43.690Z,103077.41
2019-05-14T21:09:45.239Z,103070.20
2019-05-14T21:14:49.112Z,103079.92
2019-05-14T21:19:50.230Z,103075.14
2019-05-14T21:24:53.305Z,103086.28
2019-05-14T21:29:55.117Z,103079.78
2019-05-14T21:34:58.515Z,103086.03
2019-05-14T21:40:00.124Z,103086.05
2019-05-14T21:45:01.729Z,103085.61
2019-05-14T21:50:03.847Z,103075.88
2019-05-14T21:55:05.435Z,103074.14
2019-05-14T22:00:09.526Z,103077.74
2019-05-14T22:05:11.005Z,103072.48
2019-05-14T22:10:12.543Z,103070.82
2019-05-14T22:15:14.102Z,103060.56
2019-05-14T22:20:15.652Z,103056.39
2019-05-14T22:25:19.009Z,103058.49
2019-05-14T22:30:20.587Z,103057.66
2019-05-14T22:35:22.136Z,103056.81
2019-05-14T22:40:23.598Z,103059.09
2019-05-14T22:45:25.190Z,103059.48
2019-05-14T22:50:29.182Z,103058.86
2019-05-14T22:55:31.413Z,103057.13
2019-05-14T23:00:33.101Z,103055.47
2019-05-14T23:05:34.645Z,103052.81
2019-05-14T23:10:36.053Z,103054.69
2019-05-14T23:15:38.508Z,103054.63
2019-05-14T23:20:40.190Z,103050.89
2019-05-14T23:25:41.748Z,103051.35
2019-05-14T23:30:43.296Z,103048.27
2019-05-14T23:35:44.825Z,103048.43
2019-05-14T23:40:46.296Z,103046.27
2019-05-14T23:45:48.857Z,103043.17
2019-05-14T23:50:50.272Z,103040.52
2019-05-14T23:55:51.827Z,103035.59
